createdAt,value
2023-04-08T00:00:59.088Z,102143.69
2023-04-08T00:03:28.752Z,102141.19
2023-04-08T00:05:57.017Z,102142.41
2023-04-08T00:08:25.201Z,102141.56
2023-04-08T00:10:53.819Z,102141.69
2023-04-08T00:13:21.993Z,102140.03
2023-04-08T00:15:50.162Z,102146.25
2023-04-08T00:18:18.460Z,102137.66
2023-04-08T00:20:48.171Z,102136.25
2023-04-08T00:23:16.317Z,102129.28
2023-04-08T00:25:45.597Z,102132.88
2023-04-08T00:28:13.983Z,102136.25
2023-04-08T00:30:42.219Z,102133.63
2023-04-08T00:33:10.591Z,102130.97
2023-04-08T00:35:38.826Z,102128.44
2023-04-08T00:38:08.989Z,102118.75
2023-04-08T00:40:37.470Z,102130.84
2023-04-08T00:43:05.684Z,102135.03
2023-04-08T00:45:34.978Z,102127.13
2023-04-08T00:48:04.026Z,102137.66
2023-04-08T00:50:32.445Z,102131.44
2023-04-08T00:53:00.545Z,102126.03
2023-04-08T00:55:30.196Z,102132.13
2023-04-08T00:57:58.742Z,102134.75
2023-04-08T01:00:27.376Z,102126.63
2023-04-08T01:03:05.135Z,102126.63
2023-04-08T01:05:42.003Z,102122.19
2023-04-08T01:08:13.005Z,102118.00
2023-04-08T01:10:45.756Z,102117.16
2023-04-08T01:13:18.857Z,102106.66
2023-04-08T01:15:47.720Z,102105.81
2023-04-08T01:18:18.075Z,102113.84
2023-04-08T01:20:47.990Z,102110.09
2023-04-08T01:23:32.653Z,102114.53
2023-04-08T01:26:02.208Z,102121.50
2023-04-08T01:28:32.675Z,102116.78
2023-04-08T01:31:03.470Z,102114.16
2023-04-08T01:33:32.771Z,102116.69
2023-04-08T01:36:01.991Z,102113.91
2023-04-08T01:38:33.065Z,102112.25
2023-04-08T01:41:02.765Z,102115.56
2023-04-08T01:43:32.319Z,102113.22
2023-04-08T01:46:01.392Z,102108.66
2023-04-08T01:48:30.679Z,102111.88
2023-04-08T01:50:59.895Z,102111.72
2023-04-08T01:53:28.072Z,102114.81
2023-04-08T01:55:59.929Z,102114.56
2023-04-08T01:58:37.549Z,102106.53
2023-04-08T02:01:07.553Z,102103.06
2023-04-08T02:03:37.170Z,102105.84
2023-04-08T02:06:06.392Z,102100.56
2023-04-08T02:08:36.271Z,102105.13
2023-04-08T02:11:05.035Z,102107.88
2023-04-08T02:13:34.901Z,102100.22
2023-04-08T02:16:07.732Z,102092.03
2023-04-08T02:18:38.851Z,102102.34
2023-04-08T02:21:12.799Z,102094.16
2023-04-08T02:23:42.695Z,102092.84
2023-04-08T02:26:15.797Z,102095.16
2023-04-08T02:28:45.867Z,102091.81
2023-04-08T02:31:15.793Z,102097.09
2023-04-08T02:33:44.631Z,102092.66
2023-04-08T02:36:14.132Z,102093.94
2023-04-08T02:38:42.334Z,102092.97
2023-04-08T02:41:10.443Z,102094.38
2023-04-08T02:43:38.594Z,102092.44
2023-04-08T02:46:08.609Z,102099.41
2023-04-08T02:48:37.078Z,102099.97
2023-04-08T02:51:05.524Z,102096.41
2023-04-08T02:53:33.674Z,102093.75
2023-04-08T02:56:01.863Z,102092.94
2023-04-08T02:58:30.048Z,102094.69
2023-04-08T03:00:58.174Z,102089.34
2023-04-08T03:03:29.869Z,102091.13
2023-04-08T03:05:59.120Z,102094.59
2023-04-08T03:08:27.471Z,102091.97
2023-04-08T03:10:55.763Z,102096.25
2023-04-08T03:13:23.949Z,102091.69
2023-04-08T03:15:52.157Z,102091.69
2023-04-08T03:18:20.410Z,102091.69
2023-04-08T03:20:50.026Z,102097.09
2023-04-08T03:23:18.218Z,102089.19
2023-04-08T03:25:47.059Z,102090.31
2023-04-08T03:28:15.156Z,102080.84
2023-04-08T03:30:43.593Z,102077.38
2023-04-08T03:33:11.746Z,102083.63
2023-04-08T03:35:40.133Z,102077.03
2023-04-08T03:38:09.744Z,102077.78
2023-04-08T03:40:37.961Z,102077.31
2023-04-08T03:43:06.871Z,102071.84
2023-04-08T03:45:34.964Z,102074.03
2023-04-08T03:48:03.054Z,102071.19
2023-04-08T03:50:31.806Z,102070.63
2023-04-08T03:52:59.972Z,102076.97
2023-04-08T03:55:29.488Z,102070.13
2023-04-08T03:57:57.588Z,102072.41
2023-04-08T04:00:25.737Z,102064.63
2023-04-08T04:02:55.532Z,102067.41
2023-04-08T04:05:23.739Z,102070.03
2023-04-08T04:07:51.913Z,102070.72
2023-04-08T04:10:20.214Z,102072.03
2023-04-08T04:12:51.563Z,102073.00
2023-04-08T04:15:20.002Z,102076.44
2023-04-08T04:17:50.435Z,102076.44
2023-04-08T04:20:19.017Z,102080.03
2023-04-08T04:22:47.191Z,102084.59
2023-04-08T04:25:15.391Z,102085.16
2023-04-08T04:27:43.620Z,102084.22
2023-04-08T04:30:15.805Z,102089.22
2023-04-08T04:32:44.194Z,102091.59
2023-04-08T04:35:12.733Z,102095.91
2023-04-08T04:37:41.013Z,102082.88
2023-04-08T04:40:09.805Z,102083.84
2023-04-08T04:42:38.136Z,102086.59
2023-04-08T04:45:06.956Z,102082.44
2023-04-08T04:47:36.635Z,102080.63
2023-04-08T04:50:05.492Z,102075.63
2023-04-08T04:52:33.938Z,102076.59
2023-04-08T04:55:02.062Z,102081.16
2023-04-08T04:57:30.517Z,102084.00
2023-04-08T04:59:58.508Z,102083.41
2023-04-08T05:02:27.310Z,102085.47
2023-04-08T05:04:57.162Z,102083.78
2023-04-08T05:07:25.575Z,102079.63
2023-04-08T05:09:53.713Z,102080.56
2023-04-08T05:12:22.034Z,102086.78
2023-04-08T05:14:50.176Z,102089.69
2023-04-08T05:17:18.329Z,102083.56
2023-04-08T05:19:46.427Z,102088.72
2023-04-08T05:22:16.104Z,102090.53
2023-04-08T05:24:44.637Z,102081.91
2023-04-08T05:27:12.805Z,102080.13
2023-04-08T05:29:41.723Z,102080.94
2023-04-08T05:32:09.822Z,102084.53
2023-04-08T05:34:37.853Z,102091.47
2023-04-08T05:37:06.186Z,102088.97
2023-04-08T05:39:36.785Z,102096.16
2023-04-08T05:42:05.239Z,102086.47
2023-04-08T05:44:33.552Z,102089.47
2023-04-08T05:47:01.760Z,102091.38
2023-04-08T05:49:30.044Z,102095.78
2023-04-08T05:51:58.105Z,102100.09
2023-04-08T05:54:26.487Z,102090.44
2023-04-08T05:56:56.036Z,102102.72
2023-04-08T05:59:24.214Z,102100.81
2023-04-08T06:01:52.405Z,102106.41
2023-04-08T06:04:20.971Z,102101.16
2023-04-08T06:06:49.141Z,102104.38
2023-04-08T06:09:17.249Z,102104.97
2023-04-08T06:11:47.327Z,102108.06
2023-04-08T06:14:16.935Z,102103.25
2023-04-08T06:16:45.139Z,102114.38
2023-04-08T06:19:13.443Z,102118.28
2023-04-08T06:21:41.814Z,102115.53
2023-04-08T06:24:09.917Z,102109.78
2023-04-08T06:26:38.068Z,102103.41
2023-04-08T06:29:06.296Z,102109.50
2023-04-08T06:31:35.834Z,102110.69
2023-04-08T06:34:03.989Z,102109.03
2023-04-08T06:36:32.248Z,102123.09
2023-04-08T06:39:00.528Z,102123.25
2023-04-08T06:41:28.669Z,102121.59
2023-04-08T06:43:56.770Z,102115.84
2023-04-08T06:46:25.070Z,102126.25
2023-04-08T06:48:55.700Z,102122.25
2023-04-08T06:51:23.856Z,102129.91
2023-04-08T06:53:52.181Z,102127.97
2023-04-08T06:56:21.518Z,102129.53
2023-04-08T06:58:49.841Z,102133.97
2023-04-08T07:01:18.097Z,102136.44
2023-04-08T07:03:46.363Z,102139.78
2023-04-08T07:06:16.190Z,102137.72
2023-04-08T07:08:44.323Z,102137.72
2023-04-08T07:11:12.437Z,102136.50
2023-04-08T07:13:40.554Z,102139.16
2023-04-08T07:16:08.722Z,102146.53
2023-04-08T07:18:37.047Z,102142.66
2023-04-08T07:21:05.632Z,102148.78
2023-04-08T07:23:35.146Z,102148.66
2023-04-08T07:26:05.030Z,102151.59
2023-04-08T07:28:33.334Z,102154.81
2023-04-08T07:31:11.427Z,102146.63
2023-04-08T07:33:39.570Z,102145.41
2023-04-08T07:36:07.873Z,102146.38
2023-04-08T07:38:37.520Z,102154.16
2023-04-08T07:41:05.945Z,102157.75
2023-04-08T07:43:37.393Z,102151.41
2023-04-08T07:46:05.687Z,102151.00
2023-04-08T07:48:34.569Z,102152.03
2023-04-08T07:51:08.402Z,102150.13
2023-04-08T07:53:40.905Z,102160.94
2023-04-08T07:56:13.389Z,102159.34
2023-04-08T07:58:41.933Z,102165.03
2023-04-08T08:01:18.114Z,102165.03
2023-04-08T08:03:48.047Z,102163.38
2023-04-08T08:06:16.758Z,102173.38
2023-04-08T08:08:47.060Z,102170.50
2023-04-08T08:11:15.325Z,102173.00
2023-04-08T08:13:43.414Z,102173.06
2023-04-08T08:16:12.165Z,102180.19
2023-04-08T08:18:41.513Z,102168.69
2023-04-08T08:21:10.318Z,102173.84
2023-04-08T08:23:38.718Z,102171.63
2023-04-08T08:26:11.071Z,102178.44
2023-04-08T08:28:39.824Z,102177.31
2023-04-08T08:31:08.137Z,102178.31
2023-04-08T08:33:36.673Z,102182.34
2023-04-08T08:36:06.808Z,102183.19
2023-04-08T08:38:35.119Z,102179.13
2023-04-08T08:41:04.452Z,102180.25
2023-04-08T08:43:34.787Z,102172.78
2023-04-08T08:46:03.752Z,102168.88
2023-04-08T08:48:34.199Z,102176.59
2023-04-08T08:51:02.602Z,102170.84
2023-04-08T08:53:35.716Z,102167.34
2023-04-08T08:58:37.592Z,102175.31
2023-04-08T09:01:32.495Z,102172.06
2023-04-08T09:04:12.786Z,102166.31
2023-04-08T09:06:41.653Z,102178.50
2023-04-08T09:09:12.797Z,102183.88
2023-04-08T09:11:42.066Z,102176.84
2023-04-08T09:14:22.965Z,102177.50
2023-04-08T09:16:51.702Z,102178.09
2023-04-08T09:19:20.448Z,102185.47
2023-04-08T09:22:07.469Z,102187.50
2023-04-08T09:24:37.347Z,102190.50
2023-04-08T09:27:06.394Z,102197.38
2023-04-08T09:29:39.946Z,102184.00
2023-04-08T09:32:08.443Z,102198.66
2023-04-08T09:34:36.892Z,102202.75
2023-04-08T09:37:05.182Z,102202.19
2023-04-08T09:39:33.378Z,102206.47
2023-04-08T09:42:02.852Z,102207.00
2023-04-08T09:44:32.044Z,102208.00
2023-04-08T09:47:10.154Z,102214.31
2023-04-08T09:49:43.613Z,102219.16
2023-04-08T09:52:16.253Z,102218.50
2023-04-08T09:54:50.095Z,102221.97
2023-04-08T09:57:25.266Z,102219.41
2023-04-08T09:59:59.189Z,102213.22
2023-04-08T10:02:36.759Z,102211.94
2023-04-08T10:05:08.302Z,102222.38
2023-04-08T10:07:36.929Z,102225.69
2023-04-08T10:10:05.873Z,102222.91
2023-04-08T10:12:34.501Z,102220.25
2023-04-08T10:15:25.153Z,102224.69
2023-04-08T10:17:55.511Z,102222.47
2023-04-08T10:20:46.098Z,102224.56
2023-04-08T10:23:15.662Z,102227.50
2023-04-08T10:25:45.305Z,102226.41
2023-04-08T10:28:27.342Z,102234.25
2023-04-08T10:30:57.521Z,102227.72
2023-04-08T10:33:36.049Z,102230.22
2023-04-08T10:36:11.851Z,102233.16
2023-04-08T10:38:40.246Z,102234.38
2023-04-08T10:41:08.464Z,102236.16
2023-04-08T10:43:37.311Z,102231.94
2023-04-08T10:46:06.562Z,102241.47
2023-04-08T10:48:37.935Z,102233.22
2023-04-08T10:51:07.002Z,102232.91
2023-04-08T10:53:36.643Z,102234.38
2023-04-08T10:56:06.551Z,102230.03
2023-04-08T10:58:35.349Z,102235.44
2023-04-08T11:01:08.482Z,102236.84
2023-04-08T11:03:38.428Z,102224.75
2023-04-08T11:06:07.580Z,102224.50
2023-04-08T11:08:37.915Z,102215.97
2023-04-08T11:11:09.184Z,102222.09
2023-04-08T11:13:37.823Z,102214.06
2023-04-08T11:16:17.251Z,102208.59
2023-04-08T11:18:48.320Z,102208.38
2023-04-08T11:21:17.395Z,102206.78
2023-04-08T11:23:45.596Z,102205.72
2023-04-08T11:26:15.243Z,102198.38
2023-04-08T11:28:43.478Z,102208.34
2023-04-08T11:31:12.329Z,102207.16
2023-04-08T11:33:48.912Z,102205.00
2023-04-08T11:36:19.180Z,102200.84
2023-04-08T11:38:48.140Z,102203.66
2023-04-08T11:41:17.586Z,102209.19
2023-04-08T11:43:56.333Z,102198.97
2023-04-08T11:46:25.064Z,102190.03
2023-04-08T11:49:06.079Z,102183.25
2023-04-08T11:51:35.571Z,102188.59
2023-04-08T11:54:07.462Z,102175.06
2023-04-08T11:56:47.090Z,102189.41
2023-04-08T11:59:15.736Z,102187.00
2023-04-08T12:01:43.897Z,102208.56
2023-04-08T12:04:13.478Z,102182.34
2023-04-08T12:06:43.685Z,102181.69
2023-04-08T12:09:11.897Z,102187.47
2023-04-08T12:11:40.090Z,102197.66
2023-04-08T12:14:08.166Z,102189.09
2023-04-08T12:16:36.514Z,102185.91
2023-04-08T12:19:04.810Z,102178.53
2023-04-08T12:21:34.660Z,102189.22
2023-04-08T12:24:03.187Z,102178.75
2023-04-08T12:26:31.360Z,102184.84
2023-04-08T12:28:59.395Z,102188.31
2023-04-08T12:31:28.672Z,102185.44
2023-04-08T12:33:57.008Z,102190.00
2023-04-08T12:36:25.411Z,102191.94
2023-04-08T12:38:54.980Z,102197.81
2023-04-08T12:41:23.177Z,102195.22
2023-04-08T12:43:51.261Z,102209.88
2023-04-08T12:46:19.443Z,102200.09
2023-04-08T12:48:48.677Z,102201.72
2023-04-08T12:51:17.032Z,102199.16
2023-04-08T12:53:45.274Z,102195.47
2023-04-08T12:56:14.700Z,102194.25
2023-04-08T12:58:42.800Z,102191.63
2023-04-08T13:01:12.696Z,102198.63
2023-04-08T13:03:44.375Z,102182.84
2023-04-08T13:06:13.813Z,102183.09
2023-04-08T13:08:41.981Z,102181.09
2023-04-08T13:11:10.564Z,102189.97
2023-04-08T13:13:40.218Z,102177.19
2023-04-08T13:16:09.592Z,102188.31
2023-04-08T13:18:37.805Z,102182.09
2023-04-08T13:21:06.316Z,102172.78
2023-04-08T13:23:34.423Z,102184.69
2023-04-08T13:26:03.045Z,102166.75
2023-04-08T13:28:31.136Z,102180.53
2023-04-08T13:31:00.693Z,102179.47
2023-04-08T13:33:28.922Z,102171.88
2023-04-08T13:35:57.207Z,102181.56
2023-04-08T13:38:25.548Z,102169.41
2023-04-08T13:40:53.746Z,102179.09
2023-04-08T13:43:22.715Z,102172.66
2023-04-08T13:45:50.958Z,102169.78
2023-04-08T13:48:21.553Z,102176.75
2023-04-08T13:50:50.285Z,102152.06
2023-04-08T13:53:18.424Z,102161.38
2023-04-08T13:55:46.699Z,102163.97
2023-04-08T13:58:23.448Z,102162.16
2023-04-08T14:00:52.661Z,102157.91
2023-04-08T14:03:22.646Z,102156.16
2023-04-08T14:05:51.247Z,102147.75
2023-04-08T14:08:25.300Z,102148.75
2023-04-08T14:10:53.892Z,102144.81
2023-04-08T14:13:22.138Z,102150.41
2023-04-08T14:15:50.302Z,102149.28
2023-04-08T14:18:18.458Z,102156.25
2023-04-08T14:20:48.014Z,102157.38
2023-04-08T14:23:17.075Z,102155.09
2023-04-08T14:25:45.213Z,102154.78
2023-04-08T14:28:13.486Z,102149.50
2023-04-08T14:30:41.968Z,102144.59
2023-04-08T14:33:10.183Z,102152.44
2023-04-08T14:35:38.419Z,102150.78
2023-04-08T14:38:07.992Z,102160.88
2023-04-08T14:40:37.564Z,102152.22
2023-04-08T14:43:06.384Z,102150.56
2023-04-08T14:45:34.543Z,102150.28
2023-04-08T14:48:02.741Z,102142.34
2023-04-08T14:50:31.781Z,102143.84
2023-04-08T14:53:00.219Z,102142.19
2023-04-08T14:55:30.211Z,102139.75
2023-04-08T14:58:00.831Z,102141.09
2023-04-08T15:00:29.733Z,102137.34
2023-04-08T15:02:57.959Z,102143.13
2023-04-08T15:05:26.697Z,102136.91
2023-04-08T15:07:55.560Z,102139.56
2023-04-08T15:10:23.680Z,102143.56
2023-04-08T15:12:53.304Z,102139.66
2023-04-08T15:15:21.519Z,102136.69
2023-04-08T15:17:51.648Z,102150.78
2023-04-08T15:20:20.400Z,102142.13
2023-04-08T15:22:48.674Z,102142.53
2023-04-08T15:25:17.044Z,102145.84
2023-04-08T15:27:45.238Z,102138.88
2023-04-08T15:30:14.950Z,102150.31
2023-04-08T15:32:43.210Z,102144.31
2023-04-08T15:35:12.185Z,102145.31
2023-04-08T15:37:40.453Z,102145.31
2023-04-08T15:40:10.060Z,102145.47
2023-04-08T15:42:38.206Z,102149.78
2023-04-08T15:45:06.807Z,102142.34
2023-04-08T15:47:37.012Z,102151.78
2023-04-08T15:50:05.857Z,102140.69
2023-04-08T15:52:35.302Z,102145.66
2023-04-08T15:55:03.845Z,102144.84
2023-04-08T15:57:32.523Z,102140.38
2023-04-08T16:00:00.914Z,102138.88
2023-04-08T16:02:29.788Z,102141.53
2023-04-08T16:04:59.544Z,102144.31
2023-04-08T16:07:27.847Z,102137.34
2023-04-08T16:09:56.061Z,102135.03
2023-04-08T16:12:25.587Z,102135.69
2023-04-08T16:14:53.754Z,102137.00
2023-04-08T16:17:22.046Z,102135.03
2023-04-08T16:19:52.188Z,102134.03
2023-04-08T16:22:21.864Z,102134.03
2023-04-08T16:24:50.172Z,102132.69
2023-04-08T16:27:18.436Z,102133.81
2023-04-08T16:29:46.830Z,102133.59
2023-04-08T16:32:14.984Z,102124.59
2023-04-08T16:34:43.146Z,102127.34
2023-04-08T16:37:12.253Z,102126.97
2023-04-08T16:39:42.641Z,102122.53
2023-04-08T16:42:10.778Z,102121.97
2023-04-08T16:44:38.838Z,102114.84
2023-04-08T16:47:07.127Z,102127.31
2023-04-08T16:49:35.174Z,102108.47
2023-04-08T16:52:03.238Z,102115.91
2023-04-08T16:54:31.504Z,102102.22
2023-04-08T16:57:00.937Z,102103.72
2023-04-08T16:59:29.455Z,102106.91
2023-04-08T17:01:58.555Z,102105.50
2023-04-08T17:04:26.734Z,102100.91
2023-04-08T17:06:54.841Z,102103.44
2023-04-08T17:09:23.410Z,102109.09
2023-04-08T17:11:51.528Z,102097.28
2023-04-08T17:14:21.320Z,102113.56
2023-04-08T17:16:49.687Z,102106.34
2023-04-08T17:19:17.982Z,102103.25
2023-04-08T17:21:46.395Z,102105.00
2023-04-08T17:24:14.528Z,102109.06
2023-04-08T17:26:43.203Z,102108.63
2023-04-08T17:29:11.311Z,102107.03
2023-04-08T17:31:41.565Z,102096.06
2023-04-08T17:34:09.696Z,102097.56
2023-04-08T17:36:37.857Z,102094.69
2023-04-08T17:39:06.194Z,102096.34
2023-04-08T17:41:40.407Z,102100.53
2023-04-08T17:44:09.295Z,102104.50
2023-04-08T17:46:37.521Z,102091.66
2023-04-08T17:49:07.205Z,102097.00
2023-04-08T17:51:35.616Z,102085.06
2023-04-08T17:54:04.617Z,102094.69
2023-04-08T17:56:33.468Z,102086.19
2023-04-08T17:59:01.899Z,102092.53
2023-04-08T18:01:30.411Z,102079.72
2023-04-08T18:03:58.714Z,102084.72
2023-04-08T18:06:28.397Z,102089.03
2023-04-08T18:08:56.751Z,102082.75
2023-04-08T18:11:26.690Z,102083.72
2023-04-08T18:13:54.999Z,102086.38
2023-04-08T18:16:23.538Z,102084.84
2023-04-08T18:18:51.742Z,102077.50
2023-04-08T18:21:19.894Z,102077.91
2023-04-08T18:23:51.070Z,102081.91
2023-04-08T18:26:19.544Z,102078.16
2023-04-08T18:28:47.696Z,102083.88
2023-04-08T18:31:16.776Z,102084.00
2023-04-08T18:33:45.116Z,102085.84
2023-04-08T18:36:14.039Z,102081.53
2023-04-08T18:38:42.260Z,102086.28
2023-04-08T18:41:13.460Z,102086.28
2023-04-08T18:43:42.091Z,102089.53
2023-04-08T18:46:10.514Z,102089.53
2023-04-08T18:48:38.696Z,102098.47
2023-04-08T18:51:07.073Z,102092.66
2023-04-08T18:53:35.271Z,102099.34
2023-04-08T18:56:03.458Z,102098.53
2023-04-08T18:58:33.619Z,102101.06
2023-04-08T19:01:01.682Z,102103.31
2023-04-08T19:03:29.843Z,102100.94
2023-04-08T19:05:58.130Z,102098.19
2023-04-08T19:08:26.661Z,102098.50
2023-04-08T19:10:54.888Z,102099.59
2023-04-08T19:13:23.892Z,102105.03
2023-04-08T19:15:53.518Z,102100.19
2023-04-08T19:18:21.680Z,102104.91
2023-04-08T19:21:08.802Z,102087.00
2023-04-08T19:23:36.966Z,102099.81
2023-04-08T19:26:06.840Z,102099.50
2023-04-08T19:28:36.356Z,102107.72
2023-04-08T19:31:06.082Z,102107.00
2023-04-08T19:33:34.283Z,102109.09
2023-04-08T19:36:03.171Z,102109.94
2023-04-08T19:38:31.521Z,102108.41
2023-04-08T19:40:59.688Z,102108.56
2023-04-08T19:43:27.993Z,102111.31
2023-04-08T19:45:56.111Z,102116.34
2023-04-08T19:48:26.082Z,102115.50
2023-04-08T19:50:54.362Z,102118.97
2023-04-08T19:53:22.768Z,102117.59
2023-04-08T19:55:50.882Z,102123.16
2023-04-08T19:58:18.980Z,102128.44
2023-04-08T20:00:47.164Z,102123.16
2023-04-08T20:03:15.747Z,102127.06
2023-04-08T20:05:46.868Z,102127.59
2023-04-08T20:08:14.994Z,102127.06
2023-04-08T20:10:43.238Z,102118.84
2023-04-08T20:13:11.535Z,102120.66
2023-04-08T20:15:39.636Z,102117.88
2023-04-08T20:18:07.817Z,102114.53
2023-04-08T20:20:36.326Z,102119.25
2023-04-08T20:23:05.897Z,102117.44
2023-04-08T20:25:34.525Z,102122.03
2023-04-08T20:28:03.182Z,102109.00
2023-04-08T20:30:31.382Z,102111.50
2023-04-08T20:32:59.541Z,102114.13
2023-04-08T20:35:27.951Z,102111.50
2023-04-08T20:37:56.231Z,102117.44
2023-04-08T20:40:25.764Z,102114.13
2023-04-08T20:42:53.938Z,102121.38
2023-04-08T20:45:22.975Z,102122.03
2023-04-08T20:47:51.141Z,102119.25
2023-04-08T20:50:19.398Z,102125.38
2023-04-08T20:52:48.352Z,102125.66
2023-04-08T20:55:16.955Z,102127.31
2023-04-08T20:57:47.940Z,102130.13
2023-04-08T21:00:17.102Z,102132.88
2023-04-08T21:02:45.371Z,102132.19
2023-04-08T21:05:13.716Z,102125.38
2023-04-08T21:07:44.490Z,102125.38
2023-04-08T21:10:14.305Z,102126.22
2023-04-08T21:12:42.623Z,102115.69
2023-04-08T21:15:12.581Z,102120.50
2023-04-08T21:17:40.846Z,102110.81
2023-04-08T21:20:10.143Z,102115.22
2023-04-08T21:22:38.283Z,102109.84
2023-04-08T21:25:07.784Z,102109.84
2023-04-08T21:27:37.750Z,102098.44
2023-04-08T21:30:06.501Z,102087.34
2023-04-08T21:32:36.200Z,102090.13
2023-04-08T21:35:04.530Z,102094.28
2023-04-08T21:37:32.688Z,102091.22
2023-04-08T21:40:00.827Z,102084.97
2023-04-08T21:42:28.966Z,102082.31
2023-04-08T21:44:57.665Z,102080.41
2023-04-08T21:47:26.114Z,102075.38
2023-04-08T21:49:55.961Z,102068.03
2023-04-08T21:52:24.309Z,102065.09
2023-04-08T21:54:52.502Z,102059.00
2023-04-08T21:57:20.885Z,102058.00
2023-04-08T21:59:49.620Z,102060.94
2023-04-08T22:02:17.839Z,102052.06
2023-04-08T22:04:46.178Z,102055.69
2023-04-08T22:07:15.748Z,102060.38
2023-04-08T22:09:44.048Z,102054.44
2023-04-08T22:12:12.428Z,102052.63
2023-04-08T22:14:40.671Z,102042.06
2023-04-08T22:17:08.868Z,102041.50
2023-04-08T22:19:37.144Z,102045.13
2023-04-08T22:22:05.400Z,102044.72
2023-04-08T22:24:34.835Z,102044.72
2023-04-08T22:27:03.514Z,102044.56
2023-04-08T22:29:31.679Z,102044.56
2023-04-08T22:31:59.717Z,102043.72
2023-04-08T22:34:27.828Z,102038.03
2023-04-08T22:36:56.067Z,102039.44
2023-04-08T22:39:26.155Z,102040.13
2023-04-08T22:41:56.005Z,102046.22
2023-04-08T22:44:24.169Z,102041.78
2023-04-08T22:46:52.596Z,102037.47
2023-04-08T22:49:20.748Z,102040.13
2023-04-08T22:51:49.310Z,102027.63
2023-04-08T22:54:18.256Z,102021.38
2023-04-08T22:56:46.508Z,102019.00
2023-04-08T22:59:16.558Z,102014.84
2023-04-08T23:01:45.400Z,102016.38
2023-04-08T23:04:13.637Z,102015.69
2023-04-08T23:06:41.770Z,102014.72
2023-04-08T23:09:09.908Z,102011.41
2023-04-08T23:11:38.016Z,102011.41
2023-04-08T23:14:06.130Z,102009.16
2023-04-08T23:16:35.912Z,102006.94
2023-04-08T23:19:04.349Z,101998.47
2023-04-08T23:21:32.579Z,101987.38
2023-04-08T23:24:00.726Z,101980.59
2023-04-08T23:26:29.384Z,101981.84
2023-04-08T23:28:57.694Z,101972.25
2023-04-08T23:31:25.940Z,101968.91
2023-04-08T23:33:55.722Z,101966.28
2023-04-08T23:36:23.783Z,101962.13
2023-04-08T23:38:52.193Z,101948.38
2023-04-08T23:41:20.793Z,101954.75
2023-04-08T23:43:48.970Z,101949.63
2023-04-08T23:46:17.269Z,101961.44
2023-04-08T23:48:45.426Z,101967.69
2023-04-08T23:51:15.039Z,101972.25
2023-04-08T23:53:43.295Z,101964.63
2023-04-08T23:56:11.649Z,101966.56
2023-04-08T23:58:39.783Z,101964.63
